sensor_id;sensor_type;location;lat;lon;timestamp;P1;durP1;ratioP1;P2;durP2;ratioP2
70444;SDS011;57902;49.638;11.070;2022-11-23T00:01:55;7.68;;;2.08;;
70444;SDS011;57902;49.638;11.070;2022-11-23T00:04:21;8.48;;;2.10;;
70444;SDS011;57902;49.638;11.070;2022-11-23T00:06:50;9.38;;;2.35;;
70444;SDS011;57902;49.638;11.070;2022-11-23T00:09:16;6.78;;;2.00;;
70444;SDS011;57902;49.638;11.070;2022-11-23T00:11:43;6.78;;;1.88;;
70444;SDS011;57902;49.638;11.070;2022-11-23T00:14:09;5.97;;;1.73;;
70444;SDS011;57902;49.638;11.070;2022-11-23T00:16:36;6.93;;;1.95;;
70444;SDS011;57902;49.638;11.070;2022-11-23T00:19:02;7.18;;;2.10;;
70444;SDS011;57902;49.638;11.070;2022-11-23T00:21:29;8.68;;;2.00;;
70444;SDS011;57902;49.638;11.070;2022-11-23T00:23:57;8.82;;;2.47;;
70444;SDS011;57902;49.638;11.070;2022-11-23T00:26:24;4.93;;;1.55;;
70444;SDS011;57902;49.638;11.070;2022-11-23T00:28:51;7.85;;;2.00;;
70444;SDS011;57902;49.638;11.070;2022-11-23T00:31:18;6.28;;;1.85;;
70444;SDS011;57902;49.638;11.070;2022-11-23T00:33:49;6.13;;;2.08;;
70444;SDS011;57902;49.638;11.070;2022-11-23T00:36:17;6.78;;;1.90;;
70444;SDS011;57902;49.638;11.070;2022-11-23T00:38:44;8.48;;;2.00;;
70444;SDS011;57902;49.638;11.070;2022-11-23T00:41:13;7.75;;;2.00;;
70444;SDS011;57902;49.638;11.070;2022-11-23T00:43:42;5.28;;;1.92;;
70444;SDS011;57902;49.638;11.070;2022-11-23T00:46:13;6.45;;;2.00;;
70444;SDS011;57902;49.638;11.070;2022-11-23T00:48:45;8.23;;;2.28;;
70444;SDS011;57902;49.638;11.070;2022-11-23T00:53:41;7.68;;;2.25;;
70444;SDS011;57902;49.638;11.070;2022-11-23T00:56:08;8.90;;;2.30;;
70444;SDS011;57902;49.638;11.070;2022-11-23T00:58:35;8.20;;;2.05;;
70444;SDS011;57902;49.638;11.070;2022-11-23T01:01:11;7.63;;;2.20;;
70444;SDS011;57902;49.638;11.070;2022-11-23T01:03:40;7.90;;;2.15;;
70444;SDS011;57902;49.638;11.070;2022-11-23T01:06:10;5.53;;;2.00;;
70444;SDS011;57902;49.638;11.070;2022-11-23T01:08:38;9.10;;;2.20;;
70444;SDS011;57902;49.638;11.070;2022-11-23T01:11:06;6.18;;;2.10;;
70444;SDS011;57902;49.638;11.070;2022-11-23T01:13:35;6.03;;;1.92;;
70444;SDS011;57902;49.638;11.070;2022-11-23T01:16:03;6.13;;;2.10;;
70444;SDS011;57902;49.638;11.070;2022-11-23T01:18:29;7.00;;;1.90;;
70444;SDS011;57902;49.638;11.070;2022-11-23T01:20:56;6.32;;;2.17;;
70444;SDS011;57902;49.638;11.070;2022-11-23T01:23:22;6.60;;;1.90;;
70444;SDS011;57902;49.638;11.070;2022-11-23T01:25:49;7.70;;;2.13;;
70444;SDS011;57902;49.638;11.070;2022-11-23T01:28:22;6.63;;;1.70;;
70444;SDS011;57902;49.638;11.070;2022-11-23T01:30:48;5.13;;;1.65;;
70444;SDS011;57902;49.638;11.070;2022-11-23T01:33:15;5.95;;;1.92;;
70444;SDS011;57902;49.638;11.070;2022-11-23T01:35:41;4.43;;;1.63;;
70444;SDS011;57902;49.638;11.070;2022-11-23T01:38:07;8.90;;;2.03;;
70444;SDS011;57902;49.638;11.070;2022-11-23T01:40:40;5.32;;;1.90;;
70444;SDS011;57902;49.638;11.070;2022-11-23T01:43:12;6.63;;;1.90;;
70444;SDS011;57902;49.638;11.070;2022-11-23T01:45:41;7.00;;;1.80;;
70444;SDS011;57902;49.638;11.070;2022-11-23T01:48:51;7.25;;;1.80;;
70444;SDS011;57902;49.638;11.070;2022-11-23T01:51:06;6.53;;;2.05;;
70444;SDS011;57902;49.638;11.070;2022-11-23T01:53:37;7.15;;;2.00;;
70444;SDS011;57902;49.638;11.070;2022-11-23T01:56:06;5.85;;;1.95;;
70444;SDS011;57902;49.638;11.070;2022-11-23T01:58:36;8.32;;;1.90;;
70444;SDS011;57902;49.638;11.070;2022-11-23T02:01:07;8.63;;;1.90;;
70444;SDS011;57902;49.638;11.070;2022-11-23T02:03:33;5.35;;;1.92;;
70444;SDS011;57902;49.638;11.070;2022-11-23T02:06:03;6.45;;;2.08;;
70444;SDS011;57902;49.638;11.070;2022-11-23T02:08:35;7.28;;;2.08;;
70444;SDS011;57902;49.638;11.070;2022-11-23T02:11:02;5.90;;;1.98;;
70444;SDS011;57902;49.638;11.070;2022-11-23T02:13:29;7.05;;;2.00;;
70444;SDS011;57902;49.638;11.070;2022-11-23T02:15:56;7.88;;;2.10;;
70444;SDS011;57902;49.638;11.070;2022-11-23T02:18:25;6.53;;;2.08;;
70444;SDS011;57902;49.638;11.070;2022-11-23T02:20:55;5.30;;;1.90;;
70444;SDS011;57902;49.638;11.070;2022-11-23T02:23:26;6.65;;;2.15;;
70444;SDS011;57902;49.638;11.070;2022-11-23T02:26:06;5.93;;;2.00;;
70444;SDS011;57902;49.638;11.070;2022-11-23T02:28:41;7.05;;;2.15;;
70444;SDS011;57902;49.638;11.070;2022-11-23T02:31:10;8.63;;;1.80;;
70444;SDS011;57902;49.638;11.070;2022-11-23T02:33:38;11.20;;;2.25;;
70444;SDS011;57902;49.638;11.070;2022-11-23T02:36:27;5.85;;;2.00;;
70444;SDS011;57902;49.638;11.070;2022-11-23T02:38:59;6.13;;;2.17;;
70444;SDS011;57902;49.638;11.070;2022-11-23T02:41:48;12.65;;;2.67;;
70444;SDS011;57902;49.638;11.070;2022-11-23T02:44:21;7.07;;;1.90;;
70444;SDS011;57902;49.638;11.070;2022-11-23T02:46:57;5.32;;;1.90;;
70444;SDS011;57902;49.638;11.070;2022-11-23T02:49:23;4.75;;;1.40;;
70444;SDS011;57902;49.638;11.070;2022-11-23T02:51:51;4.93;;;1.98;;
70444;SDS011;57902;49.638;11.070;2022-11-23T02:54:17;11.40;;;1.90;;
70444;SDS011;57902;49.638;11.070;2022-11-23T02:56:44;6.45;;;1.80;;
70444;SDS011;57902;49.638;11.070;2022-11-23T02:59:11;8.52;;;2.20;;
70444;SDS011;57902;49.638;11.070;2022-11-23T03:01:37;6.43;;;2.00;;
70444;SDS011;57902;49.638;11.070;2022-11-23T03:04:05;5.45;;;1.67;;
70444;SDS011;57902;49.638;11.070;2022-11-23T03:06:33;7.57;;;2.10;;
70444;SDS011;57902;49.638;11.070;2022-11-23T03:08:59;6.15;;;1.90;;
70444;SDS011;57902;49.638;11.070;2022-11-23T03:11:25;7.47;;;2.08;;
70444;SDS011;57902;49.638;11.070;2022-11-23T03:13:52;7.15;;;2.03;;
70444;SDS011;57902;49.638;11.070;2022-11-23T03:16:18;6.72;;;2.10;;
70444;SDS011;57902;49.638;11.070;2022-11-23T03:18:45;8.55;;;2.10;;
70444;SDS011;57902;49.638;11.070;2022-11-23T03:21:11;7.95;;;2.22;;
70444;SDS011;57902;49.638;11.070;2022-11-23T03:23:38;7.30;;;2.10;;
70444;SDS011;57902;49.638;11.070;2022-11-23T03:26:04;5.32;;;2.20;;
70444;SDS011;57902;49.638;11.070;2022-11-23T03:28:37;6.75;;;2.13;;
70444;SDS011;57902;49.638;11.070;2022-11-23T03:31:04;5.90;;;2.28;;
70444;SDS011;57902;49.638;11.070;2022-11-23T03:33:32;5.25;;;1.90;;
70444;SDS011;57902;49.638;11.070;2022-11-23T03:35:59;9.38;;;2.10;;
70444;SDS011;57902;49.638;11.070;2022-11-23T03:38:25;8.85;;;3.50;;
70444;SDS011;57902;49.638;11.070;2022-11-23T03:40:52;10.70;;;3.08;;
70444;SDS011;57902;49.638;11.070;2022-11-23T03:43:18;6.75;;;2.78;;
70444;SDS011;57902;49.638;11.070;2022-11-23T03:45:46;14.63;;;2.60;;
70444;SDS011;57902;49.638;11.070;2022-11-23T03:48:13;7.10;;;2.30;;
70444;SDS011;57902;49.638;11.070;2022-11-23T03:50:40;7.88;;;2.45;;
70444;SDS011;57902;49.638;11.070;2022-11-23T03:53:06;11.68;;;2.10;;
70444;SDS011;57902;49.638;11.070;2022-11-23T03:55:33;6.50;;;2.28;;
70444;SDS011;57902;49.638;11.070;2022-11-23T03:58:00;8.85;;;2.10;;
70444;SDS011;57902;49.638;11.070;2022-11-23T04:00:27;5.18;;;1.90;;
70444;SDS011;57902;49.638;11.070;2022-11-23T04:02:55;5.50;;;2.00;;
70444;SDS011;57902;49.638;11.070;2022-11-23T04:05:22;7.78;;;2.17;;
70444;SDS011;57902;49.638;11.070;2022-11-23T04:07:49;9.38;;;2.30;;
70444;SDS011;57902;49.638;11.070;2022-11-23T04:10:16;6.00;;;2.08;;
70444;SDS011;57902;49.638;11.070;2022-11-23T04:12:44;8.82;;;2.65;;
70444;SDS011;57902;49.638;11.070;2022-11-23T04:15:11;8.95;;;2.17;;
70444;SDS011;57902;49.638;11.070;2022-11-23T04:17:37;7.45;;;2.15;;
70444;SDS011;57902;49.638;11.070;2022-11-23T04:20:06;10.10;;;2.00;;
70444;SDS011;57902;49.638;11.070;2022-11-23T04:22:33;5.93;;;2.05;;
70444;SDS011;57902;49.638;11.070;2022-11-23T04:24:59;7.00;;;2.28;;
70444;SDS011;57902;49.638;11.070;2022-11-23T04:27:26;6.95;;;2.15;;
70444;SDS011;57902;49.638;11.070;2022-11-23T04:29:52;13.65;;;2.30;;
70444;SDS011;57902;49.638;11.070;2022-11-23T04:32:18;6.18;;;2.25;;
70444;SDS011;57902;49.638;11.070;2022-11-23T04:34:45;8.82;;;2.30;;
70444;SDS011;57902;49.638;11.070;2022-11-23T04:39:54;6.30;;;2.05;;
70444;SDS011;57902;49.638;11.070;2022-11-23T04:42:20;7.47;;;2.08;;
70444;SDS011;57902;49.638;11.070;2022-11-23T04:44:47;5.93;;;2.20;;
70444;SDS011;57902;49.638;11.070;2022-11-23T04:47:13;6.82;;;2.25;;
70444;SDS011;57902;49.638;11.070;2022-11-23T04:49:40;8.45;;;2.33;;
70444;SDS011;57902;49.638;11.070;2022-11-23T04:52:06;8.82;;;2.28;;
70444;SDS011;57902;49.638;11.070;2022-11-23T04:54:32;10.43;;;1.88;;
70444;SDS011;57902;49.638;11.070;2022-11-23T04:56:59;5.22;;;2.10;;
70444;SDS011;57902;49.638;11.070;2022-11-23T04:59:25;6.78;;;2.35;;
70444;SDS011;57902;49.638;11.070;2022-11-23T05:01:52;7.63;;;3.00;;
70444;SDS011;57902;49.638;11.070;2022-11-23T05:04:18;7.47;;;2.70;;
70444;SDS011;57902;49.638;11.070;2022-11-23T05:06:45;10.88;;;3.00;;
70444;SDS011;57902;49.638;11.070;2022-11-23T05:09:11;11.35;;;2.97;;
70444;SDS011;57902;49.638;11.070;2022-11-23T05:11:38;9.13;;;1.98;;
70444;SDS011;57902;49.638;11.070;2022-11-23T05:14:04;10.30;;;2.53;;
70444;SDS011;57902;49.638;11.070;2022-11-23T05:16:31;6.43;;;2.40;;
70444;SDS011;57902;49.638;11.070;2022-11-23T05:18:57;8.48;;;2.13;;
70444;SDS011;57902;49.638;11.070;2022-11-23T05:21:24;7.00;;;2.10;;
70444;SDS011;57902;49.638;11.070;2022-11-23T05:23:50;7.00;;;2.35;;
70444;SDS011;57902;49.638;11.070;2022-11-23T05:26:16;6.15;;;2.15;;
70444;SDS011;57902;49.638;11.070;2022-11-23T05:28:43;11.30;;;1.95;;
70444;SDS011;57902;49.638;11.070;2022-11-23T05:31:09;8.68;;;2.10;;
70444;SDS011;57902;49.638;11.070;2022-11-23T05:33:36;7.50;;;2.25;;
70444;SDS011;57902;49.638;11.070;2022-11-23T05:36:02;5.60;;;2.00;;
70444;SDS011;57902;49.638;11.070;2022-11-23T05:38:29;7.90;;;2.38;;
70444;SDS011;57902;49.638;11.070;2022-11-23T05:40:55;6.50;;;2.28;;
70444;SDS011;57902;49.638;11.070;2022-11-23T05:43:22;9.38;;;2.33;;
70444;SDS011;57902;49.638;11.070;2022-11-23T05:45:48;6.65;;;2.35;;
70444;SDS011;57902;49.638;11.070;2022-11-23T05:48:15;8.98;;;2.17;;
70444;SDS011;57902;49.638;11.070;2022-11-23T05:50:42;7.93;;;2.08;;
70444;SDS011;57902;49.638;11.070;2022-11-23T05:53:08;6.03;;;2.00;;
70444;SDS011;57902;49.638;11.070;2022-11-23T05:55:35;8.57;;;2.08;;
70444;SDS011;57902;49.638;11.070;2022-11-23T05:58:01;8.25;;;1.92;;
70444;SDS011;57902;49.638;11.070;2022-11-23T06:00:28;10.05;;;2.78;;
70444;SDS011;57902;49.638;11.070;2022-11-23T06:03:04;10.00;;;2.60;;
70444;SDS011;57902;49.638;11.070;2022-11-23T06:05:30;14.32;;;3.17;;
70444;SDS011;57902;49.638;11.070;2022-11-23T06:07:58;15.70;;;4.25;;
70444;SDS011;57902;49.638;11.070;2022-11-23T06:10:24;11.68;;;2.78;;
70444;SDS011;57902;49.638;11.070;2022-11-23T06:12:51;8.93;;;2.45;;
70444;SDS011;57902;49.638;11.070;2022-11-23T06:15:17;10.00;;;2.63;;
70444;SDS011;57902;49.638;11.070;2022-11-23T06:17:44;10.68;;;2.22;;
70444;SDS011;57902;49.638;11.070;2022-11-23T06:20:14;12.48;;;2.55;;
70444;SDS011;57902;49.638;11.070;2022-11-23T06:22:40;9.23;;;2.40;;
70444;SDS011;57902;49.638;11.070;2022-11-23T06:25:07;7.63;;;2.03;;
70444;SDS011;57902;49.638;11.070;2022-11-23T06:27:33;5.95;;;1.90;;
70444;SDS011;57902;49.638;11.070;2022-11-23T06:30:00;8.68;;;2.20;;
70444;SDS011;57902;49.638;11.070;2022-11-23T06:32:26;8.63;;;2.05;;
70444;SDS011;57902;49.638;11.070;2022-11-23T06:34:53;4.93;;;2.10;;
70444;SDS011;57902;49.638;11.070;2022-11-23T06:37:26;10.77;;;2.45;;
70444;SDS011;57902;49.638;11.070;2022-11-23T06:39:52;5.25;;;1.77;;
70444;SDS011;57902;49.638;11.070;2022-11-23T06:42:19;8.15;;;1.98;;
70444;SDS011;57902;49.638;11.070;2022-11-23T06:45:05;8.13;;;2.35;;
70444;SDS011;57902;49.638;11.070;2022-11-23T06:47:32;8.70;;;2.35;;
70444;SDS011;57902;49.638;11.070;2022-11-23T06:49:59;8.85;;;2.38;;
70444;SDS011;57902;49.638;11.070;2022-11-23T06:52:26;7.90;;;2.45;;
70444;SDS011;57902;49.638;11.070;2022-11-23T06:54:52;8.65;;;2.70;;
70444;SDS011;57902;49.638;11.070;2022-11-23T06:57:18;8.35;;;2.85;;
70444;SDS011;57902;49.638;11.070;2022-11-23T06:59:45;11.38;;;3.40;;
70444;SDS011;57902;49.638;11.070;2022-11-23T07:02:11;15.82;;;6.40;;
70444;SDS011;57902;49.638;11.070;2022-11-23T07:04:39;16.42;;;5.78;;
70444;SDS011;57902;49.638;11.070;2022-11-23T07:07:09;14.65;;;5.82;;
70444;SDS011;57902;49.638;11.070;2022-11-23T07:09:35;11.15;;;3.45;;
70444;SDS011;57902;49.638;11.070;2022-11-23T07:12:02;8.93;;;3.30;;
70444;SDS011;57902;49.638;11.070;2022-11-23T07:14:28;11.80;;;4.18;;
70444;SDS011;57902;49.638;11.070;2022-11-23T07:16:55;7.63;;;3.40;;
70444;SDS011;57902;49.638;11.070;2022-11-23T07:19:21;8.23;;;2.70;;
70444;SDS011;57902;49.638;11.070;2022-11-23T07:21:48;11.68;;;3.38;;
70444;SDS011;57902;49.638;11.070;2022-11-23T07:24:14;14.27;;;3.30;;
70444;SDS011;57902;49.638;11.070;2022-11-23T07:26:41;9.63;;;2.95;;
70444;SDS011;57902;49.638;11.070;2022-11-23T07:29:07;8.43;;;2.75;;
70444;SDS011;57902;49.638;11.070;2022-11-23T07:31:34;7.15;;;2.20;;
70444;SDS011;57902;49.638;11.070;2022-11-23T07:34:01;7.03;;;2.63;;
70444;SDS011;57902;49.638;11.070;2022-11-23T07:36:27;9.88;;;3.72;;
70444;SDS011;57902;49.638;11.070;2022-11-23T07:38:54;16.33;;;5.88;;
70444;SDS011;57902;49.638;11.070;2022-11-23T07:41:21;8.30;;;2.60;;
70444;SDS011;57902;49.638;11.070;2022-11-23T07:43:48;7.57;;;2.30;;
70444;SDS011;57902;49.638;11.070;2022-11-23T07:46:14;6.18;;;2.42;;
70444;SDS011;57902;49.638;11.070;2022-11-23T07:48:40;8.02;;;2.58;;
70444;SDS011;57902;49.638;11.070;2022-11-23T07:51:07;9.73;;;3.35;;
70444;SDS011;57902;49.638;11.070;2022-11-23T07:53:33;9.35;;;2.15;;
70444;SDS011;57902;49.638;11.070;2022-11-23T07:56:01;7.70;;;2.17;;
70444;SDS011;57902;49.638;11.070;2022-11-23T07:58:28;10.35;;;2.35;;
70444;SDS011;57902;49.638;11.070;2022-11-23T08:00:55;6.88;;;2.13;;
70444;SDS011;57902;49.638;11.070;2022-11-23T08:03:21;6.15;;;1.90;;
70444;SDS011;57902;49.638;11.070;2022-11-23T08:05:55;11.18;;;2.47;;
70444;SDS011;57902;49.638;11.070;2022-11-23T08:08:22;6.82;;;2.75;;
70444;SDS011;57902;49.638;11.070;2022-11-23T08:10:49;13.23;;;2.42;;
70444;SDS011;57902;49.638;11.070;2022-11-23T08:13:19;7.18;;;2.20;;
70444;SDS011;57902;49.638;11.070;2022-11-23T08:15:46;7.20;;;2.30;;
70444;SDS011;57902;49.638;11.070;2022-11-23T08:18:19;7.72;;;2.30;;
70444;SDS011;57902;49.638;11.070;2022-11-23T08:20:45;7.07;;;2.30;;
70444;SDS011;57902;49.638;11.070;2022-11-23T08:23:12;8.00;;;2.70;;
70444;SDS011;57902;49.638;11.070;2022-11-23T08:25:38;11.20;;;2.47;;
70444;SDS011;57902;49.638;11.070;2022-11-23T08:28:05;7.90;;;2.85;;
70444;SDS011;57902;49.638;11.070;2022-11-23T08:30:31;7.78;;;2.45;;
70444;SDS011;57902;49.638;11.070;2022-11-23T08:33:02;5.85;;;2.30;;
70444;SDS011;57902;49.638;11.070;2022-11-23T08:35:32;8.38;;;2.50;;
70444;SDS011;57902;49.638;11.070;2022-11-23T08:38:00;8.43;;;2.45;;
70444;SDS011;57902;49.638;11.070;2022-11-23T08:40:26;7.68;;;2.45;;
70444;SDS011;57902;49.638;11.070;2022-11-23T08:42:53;7.80;;;2.58;;
70444;SDS011;57902;49.638;11.070;2022-11-23T08:45:20;11.02;;;2.95;;
70444;SDS011;57902;49.638;11.070;2022-11-23T08:47:46;7.57;;;2.38;;
70444;SDS011;57902;49.638;11.070;2022-11-23T08:50:13;8.23;;;2.38;;
70444;SDS011;57902;49.638;11.070;2022-11-23T08:52:40;8.95;;;2.80;;
70444;SDS011;57902;49.638;11.070;2022-11-23T08:55:07;7.93;;;2.50;;
70444;SDS011;57902;49.638;11.070;2022-11-23T08:57:34;8.43;;;2.22;;
70444;SDS011;57902;49.638;11.070;2022-11-23T09:00:00;6.13;;;2.30;;
70444;SDS011;57902;49.638;11.070;2022-11-23T09:02:28;8.93;;;2.75;;
70444;SDS011;57902;49.638;11.070;2022-11-23T09:04:54;6.35;;;2.08;;
70444;SDS011;57902;49.638;11.070;2022-11-23T09:07:21;8.75;;;3.05;;
70444;SDS011;57902;49.638;11.070;2022-11-23T09:09:47;8.60;;;2.50;;
70444;SDS011;57902;49.638;11.070;2022-11-23T09:12:14;9.05;;;2.50;;
70444;SDS011;57902;49.638;11.070;2022-11-23T09:14:40;9.70;;;2.58;;
70444;SDS011;57902;49.638;11.070;2022-11-23T09:17:06;7.75;;;2.65;;
70444;SDS011;57902;49.638;11.070;2022-11-23T09:19:33;10.15;;;2.50;;
70444;SDS011;57902;49.638;11.070;2022-11-23T09:21:59;11.02;;;2.50;;
70444;SDS011;57902;49.638;11.070;2022-11-23T09:24:26;9.45;;;2.55;;
70444;SDS011;57902;49.638;11.070;2022-11-23T09:26:53;8.68;;;2.00;;
70444;SDS011;57902;49.638;11.070;2022-11-23T09:29:20;9.80;;;2.10;;
70444;SDS011;57902;49.638;11.070;2022-11-23T09:31:46;8.85;;;2.38;;
70444;SDS011;57902;49.638;11.070;2022-11-23T09:34:13;7.93;;;2.25;;
70444;SDS011;57902;49.638;11.070;2022-11-23T09:36:39;9.80;;;2.47;;
70444;SDS011;57902;49.638;11.070;2022-11-23T09:39:06;7.82;;;2.40;;
70444;SDS011;57902;49.638;11.070;2022-11-23T09:52:20;5.75;;;2.00;;
70444;SDS011;57902;49.638;11.070;2022-11-23T09:54:50;8.25;;;2.30;;
70444;SDS011;57902;49.638;11.070;2022-11-23T09:57:23;6.63;;;2.20;;
70444;SDS011;57902;49.638;11.070;2022-11-23T10:00:00;11.48;;;2.30;;
70444;SDS011;57902;49.638;11.070;2022-11-23T10:02:35;7.47;;;2.30;;
70444;SDS011;57902;49.638;11.070;2022-11-23T10:05:05;13.68;;;2.95;;
70444;SDS011;57902;49.638;11.070;2022-11-23T10:10:19;13.20;;;2.78;;
70444;SDS011;57902;49.638;11.070;2022-11-23T10:12:53;9.85;;;2.50;;
70444;SDS011;57902;49.638;11.070;2022-11-23T10:15:32;7.53;;;2.47;;
70444;SDS011;57902;49.638;11.070;2022-11-23T10:20:53;9.00;;;2.70;;
70444;SDS011;57902;49.638;11.070;2022-11-23T10:26:22;6.65;;;2.22;;
70444;SDS011;57902;49.638;11.070;2022-11-23T10:28:53;7.88;;;1.98;;
70444;SDS011;57902;49.638;11.070;2022-11-23T10:31:21;10.30;;;2.13;;
70444;SDS011;57902;49.638;11.070;2022-11-23T10:33:59;6.65;;;1.80;;
70444;SDS011;57902;49.638;11.070;2022-11-23T10:36:34;8.27;;;2.10;;
70444;SDS011;57902;49.638;11.070;2022-11-23T10:39:04;10.55;;;1.92;;
70444;SDS011;57902;49.638;11.070;2022-11-23T10:41:50;16.25;;;2.35;;
70444;SDS011;57902;49.638;11.070;2022-11-23T10:44:23;9.43;;;2.08;;
70444;SDS011;57902;49.638;11.070;2022-11-23T10:46:55;13.15;;;2.40;;
70444;SDS011;57902;49.638;11.070;2022-11-23T10:51:52;6.60;;;2.10;;
70444;SDS011;57902;49.638;11.070;2022-11-23T10:55:05;7.68;;;2.50;;
70444;SDS011;57902;49.638;11.070;2022-11-23T11:00:04;10.45;;;2.42;;
70444;SDS011;57902;49.638;11.070;2022-11-23T11:05:23;20.40;;;3.83;;
70444;SDS011;57902;49.638;11.070;2022-11-23T11:08:14;6.45;;;2.03;;
70444;SDS011;57902;49.638;11.070;2022-11-23T11:10:46;7.32;;;1.88;;
70444;SDS011;57902;49.638;11.070;2022-11-23T11:16:52;17.35;;;2.40;;
70444;SDS011;57902;49.638;11.070;2022-11-23T11:19:20;7.28;;;2.10;;
70444;SDS011;57902;49.638;11.070;2022-11-23T11:21:47;6.45;;;1.95;;
70444;SDS011;57902;49.638;11.070;2022-11-23T11:24:15;8.38;;;2.03;;
70444;SDS011;57902;49.638;11.070;2022-11-23T11:26:49;5.05;;;1.52;;
70444;SDS011;57902;49.638;11.070;2022-11-23T11:29:28;10.10;;;2.10;;
70444;SDS011;57902;49.638;11.070;2022-11-23T11:34:51;8.00;;;2.10;;
70444;SDS011;57902;49.638;11.070;2022-11-23T11:40:20;8.38;;;2.10;;
70444;SDS011;57902;49.638;11.070;2022-11-23T11:43:04;6.18;;;1.70;;
70444;SDS011;57902;49.638;11.070;2022-11-23T11:45:45;15.27;;;2.45;;
70444;SDS011;57902;49.638;11.070;2022-11-23T11:48:41;11.38;;;2.08;;
70444;SDS011;57902;49.638;11.070;2022-11-23T11:56:48;12.10;;;1.70;;
70444;SDS011;57902;49.638;11.070;2022-11-23T12:02:21;6.30;;;1.70;;
70444;SDS011;57902;49.638;11.070;2022-11-23T12:07:45;7.80;;;1.90;;
70444;SDS011;57902;49.638;11.070;2022-11-23T12:13:03;5.30;;;1.30;;
70444;SDS011;57902;49.638;11.070;2022-11-23T12:15:36;5.53;;;1.60;;
70444;SDS011;57902;49.638;11.070;2022-11-23T12:23:53;6.65;;;1.30;;
70444;SDS011;57902;49.638;11.070;2022-11-23T12:29:14;7.35;;;1.50;;
70444;SDS011;57902;49.638;11.070;2022-11-23T12:31:56;7.78;;;1.60;;
70444;SDS011;57902;49.638;11.070;2022-11-23T12:43:02;3.72;;;1.05;;
70444;SDS011;57902;49.638;11.070;2022-11-23T12:45:55;6.75;;;1.27;;
70444;SDS011;57902;49.638;11.070;2022-11-23T12:57:14;5.47;;;1.23;;
70444;SDS011;57902;49.638;11.070;2022-11-23T13:00:00;6.80;;;1.48;;
70444;SDS011;57902;49.638;11.070;2022-11-23T13:08:13;8.98;;;1.27;;
70444;SDS011;57902;49.638;11.070;2022-11-23T13:14:01;6.22;;;1.40;;
70444;SDS011;57902;49.638;11.070;2022-11-23T13:19:29;7.28;;;2.08;;
70444;SDS011;57902;49.638;11.070;2022-11-23T13:22:16;7.85;;;1.48;;
70444;SDS011;57902;49.638;11.070;2022-11-23T13:25:02;7.93;;;1.50;;
70444;SDS011;57902;49.638;11.070;2022-11-23T13:30:25;4.35;;;1.20;;
70444;SDS011;57902;49.638;11.070;2022-11-23T13:35:56;6.70;;;1.70;;
70444;SDS011;57902;49.638;11.070;2022-11-23T13:38:42;10.15;;;2.05;;
70444;SDS011;57902;49.638;11.070;2022-11-23T13:44:11;11.48;;;1.80;;
70444;SDS011;57902;49.638;11.070;2022-11-23T13:46:56;6.03;;;1.83;;
70444;SDS011;57902;49.638;11.070;2022-11-23T13:52:05;6.80;;;1.52;;
70444;SDS011;57902;49.638;11.070;2022-11-23T13:55:00;6.25;;;1.73;;
70444;SDS011;57902;49.638;11.070;2022-11-23T13:57:35;6.80;;;1.58;;
70444;SDS011;57902;49.638;11.070;2022-11-23T14:09:16;5.82;;;1.20;;
70444;SDS011;57902;49.638;11.070;2022-11-23T14:14:29;4.53;;;1.20;;
70444;SDS011;57902;49.638;11.070;2022-11-23T14:17:09;4.45;;;1.35;;
70444;SDS011;57902;49.638;11.070;2022-11-23T14:19:56;9.32;;;1.48;;
70444;SDS011;57902;49.638;11.070;2022-11-23T14:29:01;5.15;;;1.30;;
70444;SDS011;57902;49.638;11.070;2022-11-23T14:31:59;8.98;;;1.50;;
70444;SDS011;57902;49.638;11.070;2022-11-23T14:40:53;4.68;;;1.85;;
70444;SDS011;57902;49.638;11.070;2022-11-23T14:43:32;5.97;;;1.27;;
70444;SDS011;57902;49.638;11.070;2022-11-23T14:46:01;8.02;;;2.00;;
70444;SDS011;57902;49.638;11.070;2022-11-23T14:48:30;5.82;;;1.67;;
70444;SDS011;57902;49.638;11.070;2022-11-23T14:53:27;4.65;;;1.30;;
70444;SDS011;57902;49.638;11.070;2022-11-23T14:59:02;6.60;;;1.88;;
70444;SDS011;57902;49.638;11.070;2022-11-23T15:01:32;6.35;;;2.03;;
70444;SDS011;57902;49.638;11.070;2022-11-23T15:04:06;8.55;;;2.40;;
70444;SDS011;57902;49.638;11.070;2022-11-23T15:06:36;10.50;;;3.35;;
70444;SDS011;57902;49.638;11.070;2022-11-23T15:09:14;7.28;;;2.47;;
70444;SDS011;57902;49.638;11.070;2022-11-23T15:11:42;9.60;;;3.97;;
70444;SDS011;57902;49.638;11.070;2022-11-23T15:14:24;12.98;;;3.80;;
70444;SDS011;57902;49.638;11.070;2022-11-23T15:16:51;9.95;;;3.20;;
70444;SDS011;57902;49.638;11.070;2022-11-23T15:19:28;8.00;;;3.10;;
70444;SDS011;57902;49.638;11.070;2022-11-23T15:21:55;8.95;;;3.63;;
70444;SDS011;57902;49.638;11.070;2022-11-23T15:24:22;7.45;;;2.53;;
70444;SDS011;57902;49.638;11.070;2022-11-23T15:26:51;6.47;;;2.58;;
70444;SDS011;57902;49.638;11.070;2022-11-23T15:32:02;9.05;;;2.72;;
70444;SDS011;57902;49.638;11.070;2022-11-23T15:34:57;9.65;;;5.07;;
70444;SDS011;57902;49.638;11.070;2022-11-23T15:37:26;23.48;;;9.00;;
70444;SDS011;57902;49.638;11.070;2022-11-23T15:39:53;10.48;;;4.60;;
70444;SDS011;57902;49.638;11.070;2022-11-23T15:42:22;20.08;;;5.50;;
70444;SDS011;57902;49.638;11.070;2022-11-23T15:44:50;10.95;;;4.93;;
70444;SDS011;57902;49.638;11.070;2022-11-23T15:47:23;24.23;;;7.93;;
70444;SDS011;57902;49.638;11.070;2022-11-23T15:50:07;17.50;;;7.60;;
70444;SDS011;57902;49.638;11.070;2022-11-23T15:52:38;17.05;;;6.60;;
70444;SDS011;57902;49.638;11.070;2022-11-23T15:55:11;15.02;;;5.90;;
70444;SDS011;57902;49.638;11.070;2022-11-23T15:57:40;15.75;;;6.13;;
70444;SDS011;57902;49.638;11.070;2022-11-23T16:00:17;13.63;;;5.32;;
70444;SDS011;57902;49.638;11.070;2022-11-23T16:02:50;14.65;;;5.55;;
70444;SDS011;57902;49.638;11.070;2022-11-23T16:05:21;12.30;;;4.05;;
70444;SDS011;57902;49.638;11.070;2022-11-23T16:07:58;6.32;;;3.10;;
70444;SDS011;57902;49.638;11.070;2022-11-23T16:10:26;13.05;;;4.25;;
70444;SDS011;57902;49.638;11.070;2022-11-23T16:12:55;8.68;;;4.22;;
70444;SDS011;57902;49.638;11.070;2022-11-23T16:17:52;13.80;;;3.95;;
70444;SDS011;57902;49.638;11.070;2022-11-23T16:20:19;9.98;;;4.05;;
70444;SDS011;57902;49.638;11.070;2022-11-23T16:22:49;9.77;;;3.83;;
70444;SDS011;57902;49.638;11.070;2022-11-23T16:25:27;10.60;;;4.28;;
70444;SDS011;57902;49.638;11.070;2022-11-23T16:28:00;11.45;;;4.75;;
70444;SDS011;57902;49.638;11.070;2022-11-23T16:33:03;14.13;;;5.40;;
70444;SDS011;57902;49.638;11.070;2022-11-23T16:35:30;12.68;;;5.28;;
70444;SDS011;57902;49.638;11.070;2022-11-23T16:37:56;15.95;;;4.93;;
70444;SDS011;57902;49.638;11.070;2022-11-23T16:40:23;13.75;;;5.57;;
70444;SDS011;57902;49.638;11.070;2022-11-23T16:42:50;14.15;;;6.15;;
70444;SDS011;57902;49.638;11.070;2022-11-23T16:45:17;18.50;;;7.28;;
70444;SDS011;57902;49.638;11.070;2022-11-23T16:48:00;15.10;;;6.40;;
70444;SDS011;57902;49.638;11.070;2022-11-23T16:50:29;18.60;;;8.40;;
70444;SDS011;57902;49.638;11.070;2022-11-23T16:55:25;14.63;;;7.10;;
70444;SDS011;57902;49.638;11.070;2022-11-23T16:57:52;14.20;;;6.38;;
70444;SDS011;57902;49.638;11.070;2022-11-23T17:00:19;16.55;;;7.82;;
70444;SDS011;57902;49.638;11.070;2022-11-23T17:02:47;17.58;;;7.45;;
70444;SDS011;57902;49.638;11.070;2022-11-23T17:05:14;16.95;;;8.50;;
70444;SDS011;57902;49.638;11.070;2022-11-23T17:07:42;16.70;;;7.15;;
70444;SDS011;57902;49.638;11.070;2022-11-23T17:10:10;17.10;;;5.95;;
70444;SDS011;57902;49.638;11.070;2022-11-23T17:12:37;13.38;;;5.90;;